Time;durP1;ratioP1;P1;durP2;ratioP2;P2;SDS_P1;SDS_P2;PMS_P1;PMS_P2;Temp;Humidity;BMP_temperature;BMP_pressure;BME280_temperature;BME280_humidity;BME280_pressure;Samples;Min_cycle;Max_cycle;Signal;HPM_P1;HPM_P2
2022/04/08 00:01:28;;;;;;;0.53;0.47;;;;;;;6.36;90.86;97821.25;5070862;28;20179;-73
2022/04/08 00:03:54;;;;;;;0.97;0.20;;;;;;;6.29;92.33;97825.72;5070843;28;20181;-72
2022/04/08 00:06:21;;;;;;;0.30;0.30;;;;;;;6.18;95.00;97830.84;5070871;28;20585;-71
2022/04/08 00:08:47;;;;;;;0.97;0.73;;;;;;;6.11;95.53;97831.47;5070595;28;20179;-72
2022/04/08 00:11:12;;;;;;;0.20;0.20;;;;;;;6.03;97.19;97840.53;5070885;28;20253;-73
2022/04/08 00:13:38;;;;;;;0.97;0.97;;;;;;;5.94;99.02;97842.59;5070653;28;20714;-72
2022/04/08 00:16:04;;;;;;;3.97;0.60;;;;;;;5.87;100.00;97843.16;5070533;28;20186;-72
2022/04/08 00:18:30;;;;;;;3.13;0.77;;;;;;;5.92;99.35;97845.63;5070423;28;20617;-72
2022/04/08 00:20:56;;;;;;;1.13;0.57;;;;;;;5.88;100.00;97850.16;5070662;28;20249;-72
2022/04/08 00:23:21;;;;;;;6.43;0.73;;;;;;;5.85;100.00;97863.59;5070863;28;20192;-72
2022/04/08 00:25:47;;;;;;;1.80;0.70;;;;;;;5.87;100.00;97867.53;5070766;28;20748;-73
2022/04/08 00:28:12;;;;;;;0.50;0.47;;;;;;;5.89;100.00;97873.41;5070329;28;20257;-72
2022/04/08 00:30:37;;;;;;;1.40;1.30;;;;;;;5.87;100.00;97886.50;5070335;28;20645;-72
2022/04/08 00:33:03;;;;;;;1.60;0.40;;;;;;;5.87;100.00;97907.38;5070513;28;20174;-72
2022/04/08 00:35:28;;;;;;;1.03;0.30;;;;;;;5.81;100.00;97911.47;5070080;28;20382;-73
2022/04/08 00:37:53;;;;;;;1.23;0.60;;;;;;;5.61;100.00;97916.69;5070211;28;20235;-72
2022/04/08 00:40:19;;;;;;;0.53;0.50;;;;;;;5.34;100.00;97918.16;5070388;28;20247;-72
2022/04/08 00:42:44;;;;;;;0.50;0.50;;;;;;;5.21;100.00;97922.03;5070216;28;20269;-72
2022/04/08 00:45:10;;;;;;;0.97;0.10;;;;;;;5.14;100.00;97912.88;5070003;28;20210;-72
2022/04/08 00:47:37;;;;;;;0.10;0.10;;;;;;;5.10;100.00;97950.66;5070067;28;20289;-72
2022/04/08 00:50:06;;;;;;;0.30;0.30;;;;;;;5.12;100.00;97936.78;5069006;28;20174;-72
2022/04/08 00:52:33;;;;;;;0.70;0.50;;;;;;;5.25;100.00;97932.97;5070311;28;20178;-72
2022/04/08 00:55:01;;;;;;;4.40;0.40;;;;;;;5.36;100.00;97944.94;5070169;28;20552;-72
2022/04/08 00:57:28;;;;;;;0.10;0.10;;;;;;;5.35;100.00;97946.84;5069963;28;20179;-73
2022/04/08 00:59:54;;;;;;;0.27;0.20;;;;;;;5.21;100.00;97949.09;5070489;28;20177;-73
2022/04/08 01:02:20;;;;;;;0.10;0.10;;;;;;;5.11;100.00;97946.03;5070546;28;20183;-73
2022/04/08 01:04:45;;;;;;;0.80;0.80;;;;;;;5.06;100.00;97955.97;5070259;28;20174;-72
2022/04/08 01:07:11;;;;;;;0.10;0.10;;;;;;;5.08;100.00;97950.22;5069906;28;20214;-72
2022/04/08 01:09:36;;;;;;;0.80;0.60;;;;;;;5.06;100.00;97963.25;5070106;28;20235;-72
2022/04/08 01:12:02;;;;;;;0.83;0.80;;;;;;;5.04;100.00;97971.72;5069997;28;20180;-73
2022/04/08 01:14:27;;;;;;;0.20;0.20;;;;;;;5.00;100.00;97970.81;5070060;28;20174;-72
2022/04/08 01:16:53;;;;;;;2.23;0.20;;;;;;;4.97;100.00;97976.91;5069940;28;20170;-72
2022/04/08 01:19:18;;;;;;;0.70;0.70;;;;;;;4.98;100.00;97977.69;5069925;28;20267;-72
2022/04/08 01:21:43;;;;;;;1.97;0.87;;;;;;;5.04;100.00;97976.34;5070010;28;20643;-72
2022/04/08 01:24:13;;;;;;;0.83;0.57;;;;;;;5.12;100.00;97978.16;5069947;28;20432;-72
2022/04/08 01:26:40;;;;;;;0.93;0.60;;;;;;;5.20;100.00;97973.75;5069745;28;20201;-72
2022/04/08 01:29:05;;;;;;;0.50;0.43;;;;;;;5.26;100.00;97985.97;5069863;28;20178;-72
2022/04/08 01:31:34;;;;;;;2.47;0.50;;;;;;;5.29;100.00;97979.88;5070004;28;20176;-73
2022/04/08 01:33:59;;;;;;;1.90;0.50;;;;;;;5.30;100.00;97976.81;5070229;28;20175;-73
2022/04/08 01:36:24;;;;;;;0.83;0.30;;;;;;;5.36;100.00;97994.44;5069653;28;20281;-73
2022/04/08 01:38:50;;;;;;;0.50;0.33;;;;;;;5.35;100.00;98011.00;5069399;28;20270;-72
2022/04/08 01:41:18;;;;;;;0.33;0.30;;;;;;;5.33;100.00;98022.16;5070087;28;20179;-72
2022/04/08 01:43:44;;;;;;;1.10;0.57;;;;;;;5.32;100.00;97998.16;5069788;28;20175;-72
2022/04/08 01:46:10;;;;;;;2.10;0.90;;;;;;;5.29;100.00;98015.84;5069721;28;20206;-72
2022/04/08 01:48:35;;;;;;;3.80;1.03;;;;;;;5.23;100.00;98032.66;5069770;28;20193;-72
2022/04/08 01:51:01;;;;;;;0.43;0.13;;;;;;;5.16;100.00;98049.44;5069667;28;20232;-72
2022/04/08 01:53:26;;;;;;;5.20;1.23;;;;;;;5.11;100.00;98046.94;5069547;28;20536;-72
2022/04/08 01:55:52;;;;;;;0.80;0.67;;;;;;;5.06;100.00;98068.78;5069836;28;20185;-73
2022/04/08 01:58:17;;;;;;;0.17;0.17;;;;;;;5.01;100.00;98074.41;5070002;28;20179;-73
2022/04/08 02:00:42;;;;;;;2.90;0.87;;;;;;;4.93;100.00;98094.25;5073223;28;20201;-73
2022/04/08 02:03:09;;;;;;;0.10;0.10;;;;;;;4.79;100.00;98105.34;5073042;28;20257;-72
2022/04/08 02:05:34;;;;;;;15.93;1.40;;;;;;;4.44;100.00;98107.50;5073052;28;20182;-72
2022/04/08 02:07:59;;;;;;;1.57;0.50;;;;;;;4.26;100.00;98097.91;5072863;28;20182;-72
2022/04/08 02:10:26;;;;;;;2.43;0.43;;;;;;;4.23;100.00;98107.47;5073420;28;20506;-72
2022/04/08 02:12:51;;;;;;;1.80;0.30;;;;;;;4.17;100.00;98114.97;5072959;28;20179;-72
2022/04/08 02:15:22;;;;;;;7.80;0.70;;;;;;;4.04;100.00;98101.69;5072940;28;20680;-72
2022/04/08 02:17:47;;;;;;;0.20;0.20;;;;;;;3.98;100.00;98117.28;5072661;28;20183;-72
2022/04/08 02:20:13;;;;;;;0.10;0.10;;;;;;;3.93;100.00;98119.41;5072854;28;20228;-73
2022/04/08 02:22:38;;;;;;;3.93;0.20;;;;;;;3.91;100.00;98119.72;5072753;28;20193;-72
2022/04/08 02:25:05;;;;;;;0.20;0.20;;;;;;;3.95;100.00;98125.25;5072950;28;20257;-72
2022/04/08 02:27:32;;;;;;;0.10;0.10;;;;;;;3.99;100.00;98134.28;5072344;28;20206;-73
2022/04/08 02:29:58;;;;;;;0.70;0.70;;;;;;;4.01;100.00;98150.97;5072725;28;20183;-72
2022/04/08 02:32:24;;;;;;;0.23;0.23;;;;;;;4.02;100.00;98150.63;5072683;28;20175;-72
2022/04/08 02:34:50;;;;;;;0.27;0.27;;;;;;;4.02;100.00;98150.63;5072300;28;20189;-72
2022/04/08 02:37:16;;;;;;;0.27;0.27;;;;;;;4.03;100.00;98152.22;5072513;28;20265;-72
2022/04/08 02:39:41;;;;;;;0.53;0.13;;;;;;;4.02;100.00;98155.25;5064465;28;20444;-72
2022/04/08 02:42:07;;;;;;;0.77;0.77;;;;;;;3.99;100.00;98164.78;5066491;28;20189;-72
2022/04/08 02:44:32;;;;;;;0.30;0.30;;;;;;;3.96;100.00;98168.16;5072844;28;20480;-72
2022/04/08 02:46:58;;;;;;;3.90;0.30;;;;;;;3.95;100.00;98168.47;5072558;28;20416;-71
2022/04/08 02:49:23;;;;;;;0.03;0.03;;;;;;;3.94;100.00;98175.00;5072774;28;20174;-72
2022/04/08 02:51:49;;;;;;;0.30;0.20;;;;;;;3.97;100.00;98187.84;5072923;28;20420;-73
2022/04/08 02:54:15;;;;;;;0.30;0.30;;;;;;;3.99;100.00;98191.81;5072806;28;20669;-73
2022/04/08 02:56:41;;;;;;;0.00;0.00;;;;;;;4.02;100.00;98188.47;5072701;28;20182;-72
2022/04/08 02:59:07;;;;;;;4.60;0.90;;;;;;;4.06;100.00;98200.22;5072428;28;20536;-73
2022/04/08 03:01:32;;;;;;;0.20;0.20;;;;;;;4.07;100.00;98206.41;5071366;28;20182;-73
2022/04/08 03:03:57;;;;;;;0.17;0.17;;;;;;;4.10;100.00;98203.06;5072925;28;20200;-72
2022/04/08 03:06:23;;;;;;;0.50;0.50;;;;;;;4.12;100.00;98204.31;5071317;28;20683;-72
2022/04/08 03:08:48;;;;;;;0.30;0.30;;;;;;;4.13;100.00;98213.22;5072105;28;20177;-72
2022/04/08 03:11:13;;;;;;;1.23;0.30;;;;;;;4.11;100.00;98218.16;5072372;28;20470;-71
2022/04/08 03:13:39;;;;;;;0.40;0.30;;;;;;;4.10;100.00;98208.47;5072301;28;20179;-73
2022/04/08 03:16:04;;;;;;;4.50;0.30;;;;;;;4.14;100.00;98225.63;5072308;28;20189;-72
2022/04/08 03:18:30;;;;;;;0.00;0.00;;;;;;;4.12;100.00;98217.03;5072034;28;20185;-72
2022/04/08 03:20:55;;;;;;;1.13;0.70;;;;;;;4.12;100.00;98228.63;5072279;28;20699;-73
2022/04/08 03:23:20;;;;;;;0.40;0.30;;;;;;;4.08;100.00;98230.41;5072503;28;20687;-73
2022/04/08 03:25:46;;;;;;;0.33;0.30;;;;;;;4.08;100.00;98232.31;5072199;28;20175;-73
2022/04/08 03:28:11;;;;;;;0.20;0.20;;;;;;;4.08;100.00;98245.84;5070677;28;20261;-73
2022/04/08 03:30:37;;;;;;;0.27;0.27;;;;;;;4.07;100.00;98246.94;5071940;28;20198;-73
2022/04/08 03:33:02;;;;;;;0.13;0.13;;;;;;;4.11;100.00;98253.28;5071974;28;20162;-74
2022/04/08 03:35:27;;;;;;;0.27;0.27;;;;;;;4.07;100.00;98249.66;5071922;28;20166;-73
2022/04/08 03:37:53;;;;;;;0.03;0.03;;;;;;;4.06;100.00;98256.97;5071588;28;20665;-73
2022/04/08 03:40:19;;;;;;;0.00;0.00;;;;;;;4.05;100.00;98251.84;5071691;28;20247;-72
2022/04/08 03:42:44;;;;;;;5.63;0.30;;;;;;;4.07;100.00;98266.66;5071783;28;20224;-73
2022/04/08 03:45:10;;;;;;;1.07;0.40;;;;;;;4.10;100.00;98262.50;5071843;28;20566;-72
2022/04/08 03:47:35;;;;;;;0.27;0.27;;;;;;;4.09;100.00;98282.53;5071432;28;20208;-72
2022/04/08 03:50:01;;;;;;;0.93;0.93;;;;;;;4.11;100.00;98283.81;5071902;28;20178;-73
2022/04/08 03:52:32;;;;;;;0.77;0.77;;;;;;;4.08;100.00;98278.25;5071620;28;20244;-72
2022/04/08 03:54:58;;;;;;;0.20;0.20;;;;;;;4.06;100.00;98286.69;5071589;28;20217;-73
2022/04/08 03:57:23;;;;;;;0.20;0.20;;;;;;;4.03;100.00;98290.00;5071313;28;20269;-73
2022/04/08 03:59:49;;;;;;;0.23;0.23;;;;;;;3.96;100.00;98297.03;5071681;28;20730;-73
2022/04/08 04:02:14;;;;;;;0.10;0.10;;;;;;;3.92;100.00;98296.88;5071404;28;20277;-72
2022/04/08 04:04:40;;;;;;;0.00;0.00;;;;;;;3.91;100.00;98291.78;5071397;28;20182;-73
2022/04/08 04:07:05;;;;;;;0.40;0.20;;;;;;;3.89;100.00;98292.09;5071449;28;20206;-73
2022/04/08 04:09:30;;;;;;;0.30;0.30;;;;;;;3.88;100.00;98302.09;5071270;28;20551;-73
2022/04/08 04:11:56;;;;;;;0.93;0.63;;;;;;;3.89;100.00;98301.00;5071275;28;20523;-73
2022/04/08 04:14:21;;;;;;;0.30;0.30;;;;;;;3.93;100.00;98301.16;5071505;28;20185;-74
2022/04/08 04:16:46;;;;;;;0.37;0.37;;;;;;;3.95;100.00;98322.44;5071181;28;20206;-73
2022/04/08 04:19:12;;;;;;;0.20;0.20;;;;;;;3.99;100.00;98312.59;5071074;28;20174;-73
2022/04/08 04:21:37;;;;;;;0.00;0.00;;;;;;;4.05;100.00;98327.50;5070950;28;20523;-73
2022/04/08 04:24:03;;;;;;;0.50;0.30;;;;;;;4.05;100.00;98333.72;5071133;28;20535;-73
2022/04/08 04:26:28;;;;;;;0.17;0.17;;;;;;;4.05;100.00;98344.53;5070951;28;20271;-75
2022/04/08 04:28:53;;;;;;;1.30;0.27;;;;;;;4.02;100.00;98353.25;5070866;28;20317;-72
2022/04/08 04:31:19;;;;;;;0.00;0.00;;;;;;;3.96;100.00;98356.44;5071368;28;20174;-73
2022/04/08 04:33:44;;;;;;;0.20;0.20;;;;;;;3.91;100.00;98357.41;5071091;28;20186;-73
2022/04/08 04:36:11;;;;;;;0.07;0.07;;;;;;;3.96;100.00;98364.56;5070793;28;20658;-72
2022/04/08 04:38:36;;;;;;;1.43;0.40;;;;;;;3.99;100.00;98372.81;5070799;28;20308;-72
2022/04/08 04:41:02;;;;;;;0.23;0.23;;;;;;;4.02;100.00;98377.56;5071304;28;20257;-73
2022/04/08 04:43:27;;;;;;;0.20;0.20;;;;;;;4.02;100.00;98382.19;5070964;28;20166;-72
2022/04/08 04:45:52;;;;;;;0.13;0.13;;;;;;;4.05;100.00;98403.16;5071019;28;20182;-73
2022/04/08 04:48:18;;;;;;;0.40;0.10;;;;;;;4.03;100.00;98425.09;5071338;28;20233;-73
2022/04/08 04:50:43;;;;;;;0.37;0.20;;;;;;;4.01;100.00;98435.44;5070801;28;20706;-73
2022/04/08 04:53:09;;;;;;;0.10;0.10;;;;;;;3.75;100.00;98430.00;5070884;28;20581;-72
2022/04/08 04:55:34;;;;;;;0.10;0.10;;;;;;;3.65;100.00;98454.63;5070734;28;20626;-73
2022/04/08 04:58:00;;;;;;;0.00;0.00;;;;;;;3.54;100.00;98462.22;5070818;28;20190;-73
2022/04/08 05:00:25;;;;;;;0.10;0.07;;;;;;;3.52;100.00;98477.94;5071122;28;20179;-73
2022/04/08 05:02:51;;;;;;;0.00;0.00;;;;;;;3.44;100.00;98467.88;5070712;28;20174;-75
2022/04/08 05:05:16;;;;;;;0.13;0.13;;;;;;;3.39;100.00;98473.44;5070921;28;20521;-72
2022/04/08 05:07:42;;;;;;;0.00;0.00;;;;;;;3.29;100.00;98484.50;5070423;28;20194;-73
2022/04/08 05:10:08;;;;;;;0.00;0.00;;;;;;;3.12;100.00;98484.44;5070905;28;20638;-73
2022/04/08 05:12:36;;;;;;;0.23;0.10;;;;;;;2.80;100.00;98480.94;5070647;28;20193;-72
2022/04/08 05:15:06;;;;;;;0.00;0.00;;;;;;;2.64;100.00;98477.84;5070569;28;20180;-72
2022/04/08 05:17:35;;;;;;;0.20;0.20;;;;;;;2.65;100.00;98475.94;5070330;28;20175;-73
2022/04/08 05:20:01;;;;;;;0.07;0.03;;;;;;;2.70;100.00;98483.88;5070571;28;20201;-72
2022/04/08 05:22:26;;;;;;;0.00;0.00;;;;;;;2.78;100.00;98479.66;5070591;28;20524;-72
2022/04/08 05:24:51;;;;;;;0.03;0.03;;;;;;;2.87;100.00;98488.56;5070572;28;20182;-73
2022/04/08 05:27:17;;;;;;;0.10;0.10;;;;;;;2.99;100.00;98483.41;5070156;28;20265;-74
2022/04/08 05:29:42;;;;;;;0.00;0.00;;;;;;;3.05;100.00;98492.19;5070451;28;20174;-73
2022/04/08 05:32:08;;;;;;;0.00;0.00;;;;;;;3.05;100.00;98494.88;5073424;28;20175;-72
2022/04/08 05:34:33;;;;;;;0.40;0.30;;;;;;;3.07;100.00;98495.38;5076187;28;20174;-72
2022/04/08 05:36:58;;;;;;;0.10;0.10;;;;;;;3.05;100.00;98503.78;5074471;28;20210;-72
2022/04/08 05:39:24;;;;;;;0.00;0.00;;;;;;;3.06;100.00;98505.38;5074019;28;20194;-72
2022/04/08 05:41:49;;;;;;;0.00;0.00;;;;;;;3.08;100.00;98510.44;5074130;28;20186;-73
2022/04/08 05:44:14;;;;;;;0.30;0.30;;;;;;;3.12;100.00;98520.28;5074065;28;20188;-72
2022/04/08 05:46:40;;;;;;;12.63;0.77;;;;;;;3.17;100.00;98509.38;5074086;28;20207;-73
2022/04/08 05:49:05;;;;;;;0.00;0.00;;;;;;;3.22;100.00;98513.84;5074021;28;20181;-71
2022/04/08 05:51:30;;;;;;;0.23;0.23;;;;;;;3.24;100.00;98517.81;5074239;28;20650;-72
2022/04/08 05:53:56;;;;;;;0.20;0.03;;;;;;;3.32;100.00;98526.25;5074105;28;20556;-72
2022/04/08 05:56:21;;;;;;;0.80;0.80;;;;;;;3.40;100.00;98531.72;5073861;28;20170;-72
2022/04/08 05:58:46;;;;;;;0.50;0.50;;;;;;;3.51;100.00;98540.34;5073954;28;20175;-72
2022/04/08 06:01:12;;;;;;;0.37;0.37;;;;;;;3.58;100.00;98540.66;5073741;28;20194;-72
2022/04/08 06:03:37;;;;;;;0.63;0.40;;;;;;;3.67;100.00;98544.19;5074029;28;20188;-72
2022/04/08 06:06:03;;;;;;;2.73;0.47;;;;;;;3.76;100.00;98549.63;5073693;28;20656;-74
2022/04/08 06:08:28;;;;;;;0.47;0.47;;;;;;;3.82;100.00;98529.47;5073478;28;20166;-72
2022/04/08 06:10:54;;;;;;;0.47;0.47;;;;;;;3.88;100.00;98541.72;5073603;28;20201;-74
2022/04/08 06:13:24;;;;;;;0.20;0.20;;;;;;;3.87;100.00;98532.81;5073511;28;20185;-73
2022/04/08 06:15:51;;;;;;;2.17;0.73;;;;;;;3.87;100.00;98532.81;5073599;28;20167;-73
2022/04/08 06:18:18;;;;;;;0.37;0.30;;;;;;;3.89;100.00;98543.28;5073206;28;20177;-72
2022/04/08 06:20:44;;;;;;;0.50;0.50;;;;;;;3.95;100.00;98547.47;5073641;28;20260;-72
2022/04/08 06:23:09;;;;;;;0.67;0.30;;;;;;;3.96;100.00;98540.16;5073422;28;20228;-72
2022/04/08 06:25:34;;;;;;;0.80;0.50;;;;;;;3.96;99.47;98561.75;5073265;28;20658;-73
2022/04/08 06:28:03;;;;;;;0.50;0.10;;;;;;;3.93;99.67;98557.78;5073034;28;20682;-74
2022/04/08 06:30:29;;;;;;;0.07;0.07;;;;;;;3.83;99.57;98549.97;5073159;28;20258;-75
2022/04/08 06:32:55;;;;;;;2.97;0.90;;;;;;;3.68;99.74;98555.78;5073141;28;20179;-75
2022/04/08 06:35:20;;;;;;;11.13;0.87;;;;;;;3.55;99.81;98557.50;5072937;28;20181;-75
2022/04/08 06:37:46;;;;;;;1.40;0.47;;;;;;;3.49;100.00;98562.25;5073141;28;20248;-75
2022/04/08 06:40:12;;;;;;;2.43;0.93;;;;;;;3.49;100.00;98556.06;5072800;28;20190;-75
2022/04/08 06:42:38;;;;;;;0.30;0.30;;;;;;;3.56;100.00;98569.88;5073075;28;20228;-73
2022/04/08 06:45:04;;;;;;;0.97;0.77;;;;;;;3.66;100.00;98569.63;5072371;28;20626;-73
2022/04/08 06:47:30;;;;;;;2.93;0.80;;;;;;;3.78;100.00;98566.31;5072741;28;20697;-74
2022/04/08 06:49:55;;;;;;;2.27;1.33;;;;;;;3.96;100.00;98580.69;5072774;28;20225;-73
2022/04/08 06:52:20;;;;;;;9.63;1.43;;;;;;;4.10;100.00;98576.75;5072757;28;20540;-73
2022/04/08 06:54:46;;;;;;;0.90;0.60;;;;;;;4.24;100.00;98589.34;5072690;28;20186;-73
2022/04/08 06:57:11;;;;;;;3.20;0.93;;;;;;;4.15;100.00;98592.78;5072450;28;20183;-73
2022/04/08 06:59:38;;;;;;;1.20;0.43;;;;;;;4.02;100.00;98585.59;5072572;28;20210;-73
2022/04/08 07:02:04;;;;;;;0.67;0.67;;;;;;;3.85;100.00;98590.97;5072581;28;20232;-73
2022/04/08 07:04:29;;;;;;;0.63;0.33;;;;;;;3.83;100.00;98575.06;5072719;28;20182;-73
2022/04/08 07:06:56;;;;;;;8.93;1.07;;;;;;;3.90;100.00;98580.00;5072325;28;20202;-73
2022/04/08 07:09:21;;;;;;;1.90;0.80;;;;;;;4.01;100.00;98585.94;5070994;28;20568;-72
2022/04/08 07:11:47;;;;;;;0.20;0.20;;;;;;;4.16;100.00;98594.38;5072306;28;20178;-74
2022/04/08 07:14:13;;;;;;;1.00;0.90;;;;;;;4.25;100.00;98580.09;5072336;28;20174;-72
2022/04/08 07:16:41;;;;;;;1.13;1.10;;;;;;;4.39;100.00;98586.19;5069760;28;20189;-73
2022/04/08 07:19:06;;;;;;;0.93;0.93;;;;;;;4.55;100.00;98583.81;5070670;28;20557;-78
2022/04/08 07:21:32;;;;;;;3.23;0.50;;;;;;;4.65;99.41;98586.19;5072085;28;20181;-82
2022/04/08 07:23:57;;;;;;;4.00;0.30;;;;;;;4.68;98.55;98599.09;5072481;28;20638;-76
2022/04/08 07:26:22;;;;;;;3.33;0.90;;;;;;;4.69;97.06;98590.66;5071985;28;20202;-77
2022/04/08 07:28:48;;;;;;;0.83;0.73;;;;;;;4.77;96.10;98594.47;5072035;28;20174;-77
2022/04/08 07:31:13;;;;;;;1.33;1.03;;;;;;;4.83;95.97;98614.84;5071994;28;20210;-76
2022/04/08 07:33:39;;;;;;;0.40;0.40;;;;;;;4.83;94.06;98614.03;5072017;28;20175;-76
2022/04/08 07:36:05;;;;;;;2.57;0.50;;;;;;;4.84;93.16;98610.22;5071932;28;20621;-73
2022/04/08 07:38:30;;;;;;;3.50;1.03;;;;;;;4.88;91.91;98614.66;5071694;28;20170;-72
2022/04/08 07:40:57;;;;;;;4.33;0.73;;;;;;;4.89;90.60;98620.88;5071705;28;20585;-73
2022/04/08 07:43:23;;;;;;;1.50;0.73;;;;;;;4.86;89.72;98616.91;5071674;28;20171;-71
2022/04/08 07:45:49;;;;;;;0.90;0.90;;;;;;;4.89;89.88;98610.84;5071487;28;20170;-72
2022/04/08 07:48:14;;;;;;;10.17;1.67;;;;;;;4.89;89.87;98615.47;5071365;28;20173;-73
2022/04/08 07:50:40;;;;;;;1.27;0.83;;;;;;;4.89;89.44;98608.13;5071653;28;20359;-73
2022/04/08 07:53:06;;;;;;;2.63;1.23;;;;;;;4.85;87.77;98630.75;5071918;28;20301;-71
2022/04/08 07:55:31;;;;;;;4.27;0.70;;;;;;;4.85;87.60;98625.34;5070696;28;20189;-72
2022/04/08 07:57:57;;;;;;;2.63;0.67;;;;;;;4.87;86.93;98632.03;5071325;28;20171;-74
2022/04/08 08:00:26;;;;;;;15.97;2.20;;;;;;;4.85;86.35;98623.44;5071430;28;20259;-73
2022/04/08 08:02:52;;;;;;;0.60;0.40;;;;;;;4.86;86.05;98637.75;5070345;28;20575;-75
2022/04/08 08:05:20;;;;;;;0.33;0.33;;;;;;;5.00;87.55;98643.81;5071288;28;20254;-74
2022/04/08 08:07:47;;;;;;;3.30;0.87;;;;;;;5.10;86.90;98635.38;5071034;28;20281;-72
2022/04/08 08:10:15;;;;;;;8.83;1.20;;;;;;;5.28;86.78;98628.03;5071201;28;20181;-71
2022/04/08 08:12:40;;;;;;;1.17;0.63;;;;;;;5.30;85.98;98636.63;5071231;28;20174;-72
2022/04/08 08:15:05;;;;;;;1.30;1.20;;;;;;;5.35;85.39;98631.03;5071252;28;20638;-71
2022/04/08 08:17:31;;;;;;;1.17;0.63;;;;;;;5.37;84.00;98647.78;5071204;28;20177;-71
2022/04/08 08:19:57;;;;;;;0.90;0.13;;;;;;;5.40;85.00;98628.16;5071102;28;20181;-73
2022/04/08 08:22:22;;;;;;;7.67;0.87;;;;;;;5.46;86.13;98640.41;5071008;28;20592;-72
2022/04/08 08:24:48;;;;;;;12.43;0.93;;;;;;;5.42;84.54;98634.06;5069779;28;20554;-76
2022/04/08 08:27:13;;;;;;;0.83;0.83;;;;;;;5.47;84.39;98630.38;5070796;28;20198;-71
2022/04/08 08:29:39;;;;;;;2.27;0.30;;;;;;;5.68;83.86;98631.28;5071010;28;20375;-71
2022/04/08 08:32:04;;;;;;;13.73;2.33;;;;;;;5.77;82.89;98632.03;5070940;28;20177;-71
2022/04/08 08:34:30;;;;;;;0.63;0.50;;;;;;;5.90;80.50;98633.78;5071004;28;20346;-73
2022/04/08 08:36:59;;;;;;;2.07;0.83;;;;;;;5.94;80.19;98634.72;5070821;28;20177;-72
2022/04/08 08:39:25;;;;;;;2.03;0.63;;;;;;;5.84;80.13;98635.06;5071014;28;20340;-73
2022/04/08 08:41:51;;;;;;;4.27;0.50;;;;;;;5.72;79.19;98643.06;5063065;28;20179;-70
2022/04/08 08:44:19;;;;;;;0.20;0.20;;;;;;;5.67;78.42;98630.50;5051128;28;20171;-71
2022/04/08 08:46:45;;;;;;;0.77;0.63;;;;;;;5.72;79.37;98639.56;5050618;28;20227;-71
2022/04/08 08:49:14;;;;;;;0.47;0.43;;;;;;;5.74;80.84;98627.28;5050582;28;20662;-71
2022/04/08 08:51:44;;;;;;;0.87;0.30;;;;;;;5.90;80.01;98638.41;5050665;28;20587;-71
2022/04/08 08:54:10;;;;;;;0.53;0.20;;;;;;;5.99;78.22;98627.53;5050577;28;20583;-72
2022/04/08 08:56:35;;;;;;;1.13;0.57;;;;;;;5.99;76.23;98639.16;5050628;28;20182;-71
2022/04/08 08:59:00;;;;;;;0.30;0.20;;;;;;;6.08;75.31;98636.44;5050606;28;20182;-71
2022/04/08 09:01:26;;;;;;;1.20;0.80;;;;;;;6.23;75.71;98639.38;5050561;28;20293;-71
2022/04/08 09:03:51;;;;;;;1.70;0.93;;;;;;;6.19;74.59;98643.84;5050690;28;20498;-70
2022/04/08 09:06:17;;;;;;;2.93;0.30;;;;;;;6.40;73.89;98629.56;5051167;28;20207;-72
2022/04/08 09:08:54;;;;;;;0.50;0.50;;;;;;;6.73;75.40;98632.38;5054589;28;20507;-71
2022/04/08 09:11:24;;;;;;;0.40;0.40;;;;;;;6.48;72.51;98625.97;5054734;28;20163;-71
2022/04/08 09:13:49;;;;;;;0.60;0.60;;;;;;;6.35;72.56;98641.38;5053683;28;20232;-71
2022/04/08 09:16:25;;;;;;;0.53;0.53;;;;;;;6.19;72.63;98629.50;5053876;28;20530;-71
2022/04/08 09:18:50;;;;;;;1.43;0.83;;;;;;;6.20;73.81;98633.81;5058415;28;22133;-71
2022/04/08 09:21:25;;;;;;;0.93;0.60;;;;;;;6.09;73.00;98622.56;5073116;28;20657;-72
2022/04/08 09:23:51;;;;;;;1.63;0.67;;;;;;;6.15;73.39;98637.50;5074019;28;20181;-71
2022/04/08 09:26:16;;;;;;;0.63;0.40;;;;;;;6.18;72.04;98628.69;5073885;28;20187;-72
2022/04/08 09:28:42;;;;;;;8.67;0.73;;;;;;;6.32;72.65;98622.25;5073929;28;20175;-71
2022/04/08 09:31:18;;;;;;;1.23;0.50;;;;;;;6.53;71.50;98645.59;5074307;28;20638;-71
2022/04/08 09:33:55;;;;;;;6.63;1.17;;;;;;;6.57;69.80;98627.53;5074074;28;20177;-72
2022/04/08 09:36:31;;;;;;;0.37;0.37;;;;;;;6.61;69.23;98624.94;5074034;28;20585;-72
2022/04/08 09:38:57;;;;;;;1.20;0.60;;;;;;;6.63;69.75;98621.91;5073846;28;20209;-74
2022/04/08 09:41:45;;;;;;;0.80;0.80;;;;;;;6.74;68.21;98620.38;5074212;28;20205;-72
2022/04/08 09:44:13;;;;;;;1.07;0.33;;;;;;;7.08;69.56;98613.88;5074424;28;20163;-72
2022/04/08 09:46:39;;;;;;;1.50;0.87;;;;;;;7.20;69.11;98624.00;5073873;28;20204;-71
2022/04/08 09:49:06;;;;;;;0.83;0.63;;;;;;;7.19;69.02;98617.78;5073844;28;20170;-71
2022/04/08 09:51:41;;;;;;;3.20;1.40;;;;;;;7.23;69.38;98617.91;5072684;28;20220;-71
2022/04/08 09:54:09;;;;;;;0.63;0.63;;;;;;;7.31;70.23;98611.59;5074023;28;20170;-72
2022/04/08 09:56:36;;;;;;;1.87;0.57;;;;;;;7.37;66.90;98610.25;5073701;28;20243;-71
2022/04/08 09:59:13;;;;;;;0.93;0.93;;;;;;;7.25;67.97;98613.75;5073691;28;20299;-71
2022/04/08 10:01:42;;;;;;;1.43;0.40;;;;;;;7.14;67.96;98602.50;5073724;28;20634;-71
2022/04/08 10:04:09;;;;;;;0.30;0.30;;;;;;;6.99;67.40;98589.53;5073814;28;20654;-71
2022/04/08 10:06:39;;;;;;;4.97;1.63;;;;;;;7.01;67.88;98583.75;5073557;28;20224;-72
2022/04/08 10:09:10;;;;;;;0.63;0.63;;;;;;;7.05;68.07;98581.97;5073656;28;20224;-71
2022/04/08 10:11:47;;;;;;;1.00;1.00;;;;;;;7.18;69.61;98585.53;5073830;28;20167;-72
2022/04/08 10:14:43;;;;;;;0.10;0.10;;;;;;;7.13;66.45;98583.81;5073630;28;20175;-72
2022/04/08 10:17:09;;;;;;;1.77;0.67;;;;;;;7.13;65.25;98567.53;5072105;28;20190;-71
2022/04/08 10:19:35;;;;;;;0.30;0.23;;;;;;;7.20;64.82;98577.81;5072417;28;20193;-73
2022/04/08 10:22:00;;;;;;;0.47;0.47;;;;;;;7.27;67.21;98570.75;5073403;28;20174;-73
2022/04/08 10:24:28;;;;;;;1.23;0.37;;;;;;;7.42;67.68;98561.16;5073681;28;20679;-73
2022/04/08 10:27:14;;;;;;;0.40;0.40;;;;;;;7.56;65.40;98566.28;5073121;28;20238;-71
2022/04/08 10:29:39;;;;;;;2.83;0.50;;;;;;;7.51;65.42;98556.41;5073151;28;20182;-71
2022/04/08 10:32:14;;;;;;;0.47;0.37;;;;;;;7.51;65.08;98553.69;5073244;28;20174;-71
2022/04/08 10:34:40;;;;;;;0.87;0.40;;;;;;;7.63;65.30;98561.84;5072986;28;20193;-72
2022/04/08 10:37:21;;;;;;;1.07;0.83;;;;;;;7.65;61.22;98561.50;5073053;28;20202;-71
2022/04/08 10:40:02;;;;;;;1.40;0.90;;;;;;;7.69;60.38;98557.81;5073190;28;20214;-72
2022/04/08 10:42:29;;;;;;;2.57;0.40;;;;;;;7.74;59.75;98559.50;5071886;28;20258;-72
2022/04/08 10:44:55;;;;;;;2.10;0.67;;;;;;;7.73;59.52;98547.03;5072798;28;20171;-72
2022/04/08 10:47:21;;;;;;;0.40;0.40;;;;;;;7.86;60.26;98553.28;5071010;28;20703;-71
2022/04/08 10:50:04;;;;;;;1.20;0.60;;;;;;;7.96;60.21;98552.84;5072923;28;20177;-73
2022/04/08 10:52:39;;;;;;;0.50;0.40;;;;;;;7.93;60.45;98556.22;5071851;28;20206;-72
2022/04/08 10:55:05;;;;;;;0.13;0.13;;;;;;;7.72;60.30;98546.25;5073062;28;20174;-72
2022/04/08 10:57:38;;;;;;;4.47;1.27;;;;;;;7.49;58.63;98555.94;5072825;28;20179;-71
2022/04/08 11:00:12;;;;;;;0.33;0.33;;;;;;;7.36;59.45;98552.41;5072958;28;20637;-71
2022/04/08 11:02:40;;;;;;;2.80;0.90;;;;;;;7.22;58.25;98545.69;5072767;28;20170;-72
2022/04/08 11:05:10;;;;;;;0.43;0.30;;;;;;;7.18;58.72;98548.28;5073114;28;20190;-71
2022/04/08 11:07:41;;;;;;;0.20;0.20;;;;;;;7.13;58.48;98543.09;5072790;28;20209;-72
2022/04/08 11:10:12;;;;;;;0.40;0.40;;;;;;;7.10;59.24;98535.63;5072550;28;20190;-72
2022/04/08 11:12:45;;;;;;;0.40;0.40;;;;;;;7.24;62.20;98533.38;5071205;28;20173;-72
2022/04/08 11:15:19;;;;;;;1.40;0.70;;;;;;;7.32;60.02;98527.06;5072296;28;20174;-73
2022/04/08 11:17:46;;;;;;;0.27;0.27;;;;;;;7.33;59.89;98531.34;5072042;28;20177;-72
2022/04/08 11:20:17;;;;;;;3.20;0.93;;;;;;;7.28;58.96;98533.50;5072295;28;20261;-72
2022/04/08 11:22:44;;;;;;;0.30;0.30;;;;;;;7.26;59.27;98536.56;5072168;28;20674;-72
2022/04/08 11:25:18;;;;;;;0.10;0.10;;;;;;;7.24;57.90;98529.88;5072004;28;20181;-72
2022/04/08 11:27:43;;;;;;;0.17;0.17;;;;;;;7.30;58.31;98531.25;5071696;28;20190;-73
2022/04/08 11:30:09;;;;;;;2.77;0.60;;;;;;;7.44;58.95;98532.50;5071838;28;20190;-72
2022/04/08 11:32:35;;;;;;;0.80;0.70;;;;;;;7.56;57.67;98529.03;5071995;28;20182;-72
2022/04/08 11:35:10;;;;;;;0.73;0.40;;;;;;;7.68;57.53;98525.53;5071471;28;20182;-73